Time;durP1;ratioP1;P1;durP2;ratioP2;P2;SDS_P1;SDS_P2;PMS_P1;PMS_P2;Temp;Humidity;BMP_temperature;BMP_pressure;BME280_temperature;BME280_humidity;BME280_pressure;Samples;Min_cycle;Max_cycle;Signal;HPM_P1;HPM_P2
2022/05/02 00:02:19;;;;;;;4.32;2.65;;;;;;;11.53;69.21;94733.34;5034114;28;20229;-79
2022/05/02 00:04:46;;;;;;;4.22;2.88;;;;;;;11.53;69.20;94727.94;5034282;28;20223;-81
2022/05/02 00:07:12;;;;;;;9.38;4.00;;;;;;;11.53;69.24;94727.94;5033851;28;20215;-82
2022/05/02 00:09:41;;;;;;;4.78;3.00;;;;;;;11.53;69.16;94730.66;5033986;28;20204;-79
2022/05/02 00:12:09;;;;;;;2.72;1.85;;;;;;;11.57;68.87;94728.88;5033817;28;20211;-77
2022/05/02 00:14:36;;;;;;;4.20;2.95;;;;;;;11.48;69.21;94725.44;5033795;28;20200;-82
2022/05/02 00:17:04;;;;;;;2.83;2.28;;;;;;;11.47;69.33;94723.84;5033265;28;20698;-78
2022/05/02 00:19:30;;;;;;;4.78;3.60;;;;;;;11.44;69.83;94729.91;5033922;28;20211;-80
2022/05/02 00:21:57;;;;;;;3.25;2.30;;;;;;;11.46;69.47;94727.69;5033502;28;20290;-75
2022/05/02 00:24:24;;;;;;;4.95;3.08;;;;;;;11.46;69.62;94722.25;5035649;28;20310;-82
2022/05/02 00:26:53;;;;;;;4.60;3.47;;;;;;;11.42;69.87;94721.31;5033373;28;20235;-83
2022/05/02 00:29:20;;;;;;;3.20;2.38;;;;;;;11.44;69.57;94724.50;5033746;28;20251;-81
2022/05/02 00:31:47;;;;;;;4.40;3.13;;;;;;;11.42;69.83;94718.59;5033121;28;20275;-80
2022/05/02 00:34:15;;;;;;;4.43;2.88;;;;;;;11.34;69.89;94715.59;5046943;28;20211;-82
2022/05/02 00:36:41;;;;;;;4.00;2.28;;;;;;;11.36;69.76;94718.78;5033351;28;20667;-77
2022/05/02 00:39:08;;;;;;;6.45;2.67;;;;;;;11.37;69.66;94714.16;5033504;28;20200;-75
2022/05/02 00:41:36;;;;;;;5.90;2.85;;;;;;;11.35;69.74;94719.91;5033356;28;20267;-76
2022/05/02 00:44:05;;;;;;;3.50;2.63;;;;;;;11.32;69.88;94715.16;5032872;28;20240;-79
2022/05/02 00:46:33;;;;;;;3.78;3.30;;;;;;;11.30;70.00;94717.41;5032800;28;20231;-79
2022/05/02 00:49:00;;;;;;;4.60;3.08;;;;;;;11.30;70.31;94724.75;5033362;28;20307;-78
2022/05/02 00:51:27;;;;;;;2.75;2.28;;;;;;;11.27;70.12;94711.84;5032801;28;20196;-81
2022/05/02 00:53:54;;;;;;;3.83;2.35;;;;;;;11.23;70.18;94711.69;5033462;28;20528;-79
2022/05/02 00:56:21;;;;;;;4.78;3.55;;;;;;;11.21;70.54;94710.44;5033511;28;20220;-78
2022/05/02 00:58:50;;;;;;;2.80;2.47;;;;;;;11.28;69.44;94706.09;5032675;28;20228;-78
2022/05/02 01:01:18;;;;;;;1.88;1.40;;;;;;;11.32;69.28;94701.59;5033070;28;20319;-85
2022/05/02 01:03:45;;;;;;;3.92;2.75;;;;;;;11.27;69.46;94707.22;5032413;28;20228;-81
2022/05/02 01:08:57;;;;;;;4.68;2.80;;;;;;;11.23;69.45;94692.72;5032926;28;20196;-80
2022/05/02 01:11:24;;;;;;;5.00;3.33;;;;;;;11.25;69.45;94686.97;5032960;28;20208;-80
2022/05/02 01:13:51;;;;;;;4.25;2.90;;;;;;;11.23;69.53;94698.13;5032275;28;20250;-80
2022/05/02 01:16:22;;;;;;;2.53;2.05;;;;;;;11.20;69.54;94685.28;5031693;28;20201;-71
2022/05/02 01:18:50;;;;;;;1.88;1.63;;;;;;;11.18;69.72;94689.44;5031802;28;20207;-79
2022/05/02 01:21:21;;;;;;;3.45;2.63;;;;;;;11.16;69.91;94687.03;5032681;28;20825;-81
2022/05/02 01:23:53;;;;;;;3.85;2.72;;;;;;;11.15;69.75;94685.44;5034306;28;20200;-78
2022/05/02 01:26:20;;;;;;;4.68;2.25;;;;;;;11.15;69.70;94685.44;5044517;28;20204;-82
2022/05/02 01:28:50;;;;;;;2.50;2.10;;;;;;;11.10;69.87;94682.91;5032300;28;20729;-80
2022/05/02 01:31:19;;;;;;;4.82;2.30;;;;;;;11.05;69.95;94685.84;5032371;28;20196;-82
2022/05/02 01:33:47;;;;;;;7.70;2.15;;;;;;;11.09;69.90;94675.13;5032131;28;20200;-82
2022/05/02 01:36:14;;;;;;;2.33;1.88;;;;;;;11.07;69.97;94671.97;5032582;28;20201;-78
2022/05/02 01:38:42;;;;;;;2.10;1.63;;;;;;;11.02;69.69;94670.22;5029575;28;20587;-82
2022/05/02 01:41:10;;;;;;;2.25;1.58;;;;;;;11.01;69.64;94665.94;5021986;28;20866;-82
2022/05/02 01:43:38;;;;;;;3.05;2.10;;;;;;;11.03;69.54;94655.56;5034996;28;20239;-75
2022/05/02 01:46:07;;;;;;;3.72;2.53;;;;;;;11.03;69.81;94650.13;5040528;28;20679;-82
2022/05/02 01:48:35;;;;;;;2.58;1.95;;;;;;;10.96;70.10;94657.97;5032063;28;20226;-79
2022/05/02 01:51:03;;;;;;;1.52;1.17;;;;;;;10.95;70.10;94653.69;5032569;28;20211;-74
2022/05/02 01:53:30;;;;;;;3.85;2.28;;;;;;;10.94;70.10;94665.63;5032059;28;20300;-82
2022/05/02 01:55:59;;;;;;;3.00;2.05;;;;;;;10.92;70.30;94654.38;5031754;28;20714;-79
2022/05/02 01:58:26;;;;;;;3.15;2.38;;;;;;;10.87;70.52;94657.25;5031568;28;20200;-81
2022/05/02 02:00:53;;;;;;;4.15;2.47;;;;;;;10.83;70.70;94650.88;5031131;28;20228;-81
2022/05/02 02:03:20;;;;;;;3.85;2.35;;;;;;;10.84;70.72;94647.84;5031143;28;20221;-82
2022/05/02 02:05:48;;;;;;;7.18;2.30;;;;;;;10.84;70.81;94652.47;5031969;28;20200;-71
2022/05/02 02:08:16;;;;;;;1.80;1.67;;;;;;;10.82;70.97;94638.47;5031621;28;20223;-74
2022/05/02 02:10:43;;;;;;;4.13;2.75;;;;;;;10.77;71.12;94646.81;5031397;28;20211;-81
2022/05/02 02:13:11;;;;;;;4.88;2.95;;;;;;;10.78;71.14;94638.34;5031707;28;20299;-80
2022/05/02 02:15:38;;;;;;;2.42;1.60;;;;;;;10.77;71.20;94631.34;5032116;28;20574;-76
2022/05/02 02:18:06;;;;;;;2.45;1.98;;;;;;;10.75;71.40;94627.38;5032023;28;20200;-76
2022/05/02 02:20:34;;;;;;;2.42;1.70;;;;;;;10.74;71.44;94625.78;5031881;28;20204;-72
2022/05/02 02:23:01;;;;;;;2.90;2.42;;;;;;;10.73;71.57;94627.69;5031975;28;20204;-80
2022/05/02 02:25:28;;;;;;;3.63;1.70;;;;;;;10.68;71.72;94625.94;5032457;28;20204;-70
2022/05/02 02:27:55;;;;;;;3.88;3.15;;;;;;;10.63;72.05;94611.81;5031363;28;20708;-77
2022/05/02 02:30:24;;;;;;;3.08;2.15;;;;;;;10.58;72.08;94628.25;5031758;28;20208;-82
2022/05/02 02:32:50;;;;;;;5.05;3.10;;;;;;;10.53;72.27;94621.09;5030893;28;20228;-80
2022/05/02 02:35:20;;;;;;;3.67;2.53;;;;;;;10.53;72.50;94621.09;5031118;28;20212;-79
2022/05/02 02:37:47;;;;;;;2.25;1.73;;;;;;;10.49;72.69;94609.34;5031703;28;20203;-74
2022/05/02 02:40:15;;;;;;;4.85;2.90;;;;;;;10.48;72.74;94606.97;5030846;28;20302;-77
2022/05/02 02:42:41;;;;;;;5.32;2.60;;;;;;;10.45;72.91;94600.28;5031172;28;20236;-83
2022/05/02 02:45:09;;;;;;;2.53;1.88;;;;;;;10.43;73.02;94610.66;5030994;28;20224;-78
2022/05/02 02:47:38;;;;;;;2.55;2.03;;;;;;;10.42;73.15;94598.22;5030787;28;20259;-81
2022/05/02 02:50:06;;;;;;;3.22;2.35;;;;;;;10.33;73.57;94601.00;5031279;28;20201;-82
2022/05/02 02:52:33;;;;;;;3.30;2.40;;;;;;;10.29;73.65;94599.25;5031358;28;20200;-80
2022/05/02 02:55:00;;;;;;;5.03;3.20;;;;;;;10.29;73.80;94610.88;5031012;28;20204;-78
2022/05/02 02:57:27;;;;;;;3.97;3.22;;;;;;;10.27;73.96;94607.69;5031010;28;20200;-79
2022/05/02 02:59:53;;;;;;;3.50;2.35;;;;;;;10.25;74.13;94599.09;5030925;28;20719;-76
2022/05/02 03:02:20;;;;;;;5.72;3.30;;;;;;;10.23;73.97;94600.56;5030951;28;20242;-74
2022/05/02 03:07:34;;;;;;;4.97;3.33;;;;;;;10.09;74.54;94598.06;5030954;28;20196;-85
2022/05/02 03:10:01;;;;;;;5.97;3.58;;;;;;;10.06;74.56;94606.00;5031209;28;20223;-79
2022/05/02 03:12:28;;;;;;;5.13;3.08;;;;;;;10.04;74.67;94594.72;5030917;28;20196;-77
2022/05/02 03:14:55;;;;;;;3.55;2.63;;;;;;;10.01;74.90;94592.66;5032630;28;20887;-79
2022/05/02 03:17:21;;;;;;;5.68;3.63;;;;;;;9.98;75.17;94605.72;5034847;28;20222;-81
2022/05/02 03:19:50;;;;;;;4.43;3.58;;;;;;;9.89;75.29;94599.53;5034843;28;20204;-78
2022/05/02 03:22:17;;;;;;;6.32;3.97;;;;;;;9.88;75.52;94602.56;5034939;28;20232;-82
2022/05/02 03:24:43;;;;;;;5.07;3.38;;;;;;;9.82;75.61;94601.97;5037239;28;20625;-82
2022/05/02 03:27:10;;;;;;;5.32;2.95;;;;;;;9.82;75.65;94612.78;5035011;28;20205;-80
2022/05/02 03:29:38;;;;;;;2.58;2.33;;;;;;;9.74;75.85;94597.34;5035161;28;20247;-81
2022/05/02 03:32:05;;;;;;;5.40;3.17;;;;;;;9.83;75.78;94603.56;5035047;28;20200;-78
2022/05/02 03:34:32;;;;;;;10.05;3.47;;;;;;;9.93;75.33;94597.78;5034950;28;20200;-80
2022/05/02 03:37:00;;;;;;;3.33;2.47;;;;;;;10.05;74.83;94593.59;5034543;28;20212;-80
2022/05/02 03:39:27;;;;;;;4.82;2.97;;;;;;;10.18;74.28;94592.59;5034695;28;20211;-82
2022/05/02 03:41:54;;;;;;;9.70;3.85;;;;;;;10.31;73.90;94595.09;5034444;28;20266;-81
2022/05/02 03:44:21;;;;;;;5.22;3.78;;;;;;;10.48;73.25;94602.34;5034475;28;20240;-80
2022/05/02 03:46:48;;;;;;;3.25;2.33;;;;;;;10.59;72.81;94598.13;5034304;28;20204;-84
2022/05/02 03:49:15;;;;;;;4.72;2.83;;;;;;;10.67;72.31;94591.84;5034549;28;20292;-78
2022/05/02 03:51:42;;;;;;;3.67;2.58;;;;;;;10.88;71.47;94591.09;5034526;28;20565;-76
2022/05/02 03:54:12;;;;;;;2.47;1.98;;;;;;;11.08;70.72;94601.13;5033934;28;20200;-81
2022/05/02 03:56:39;;;;;;;7.57;5.22;;;;;;;11.08;70.59;94595.72;5034246;28;20224;-82
2022/05/02 03:59:06;;;;;;;4.88;2.38;;;;;;;11.27;69.88;94590.63;5033909;28;20209;-79
2022/05/02 04:01:36;;;;;;;4.95;3.75;;;;;;;11.44;69.19;94586.16;5034173;28;20232;-77
2022/05/02 04:04:03;;;;;;;3.97;3.05;;;;;;;11.28;69.68;94603.06;5033889;28;20230;-79
2022/05/02 04:06:31;;;;;;;5.07;3.78;;;;;;;11.70;68.52;94594.84;5033106;28;20200;-83
2022/05/02 04:08:57;;;;;;;6.57;5.28;;;;;;;11.73;68.03;94591.47;5034179;28;20278;-84
2022/05/02 04:11:26;;;;;;;7.65;5.60;;;;;;;11.71;67.49;94599.13;5033915;28;20228;-84
2022/05/02 04:13:53;;;;;;;5.78;3.28;;;;;;;11.90;67.17;94590.50;5034163;28;20230;-79
2022/05/02 04:16:20;;;;;;;7.20;4.88;;;;;;;11.88;66.84;94599.00;5033691;28;20204;-78
2022/05/02 04:18:48;;;;;;;7.15;3.15;;;;;;;11.90;66.38;94598.63;5033350;28;20235;-84
2022/05/02 04:21:14;;;;;;;4.80;4.15;;;;;;;12.02;66.08;94593.25;5033178;28;20219;-80
2022/05/02 04:23:41;;;;;;;3.13;2.10;;;;;;;11.99;65.58;94593.91;5035229;28;20666;-80
2022/05/02 04:26:08;;;;;;;15.35;6.93;;;;;;;12.53;64.58;94601.88;5033267;28;20213;-79
2022/05/02 04:28:36;;;;;;;2.45;1.88;;;;;;;12.40;64.31;94603.81;5033587;28;20662;-73
2022/05/02 04:31:03;;;;;;;3.30;2.08;;;;;;;12.84;63.16;94591.22;5020001;28;20431;-78
2022/05/02 04:33:30;;;;;;;6.78;2.92;;;;;;;13.14;62.02;94589.78;5034082;28;20201;-82
2022/05/02 04:35:57;;;;;;;3.97;2.90;;;;;;;13.09;62.19;94602.81;5037578;28;20200;-85
2022/05/02 04:38:26;;;;;;;12.38;2.60;;;;;;;13.51;61.08;94593.19;5029899;28;20224;-85
2022/05/02 04:40:54;;;;;;;6.60;2.70;;;;;;;13.05;62.14;94599.19;5033717;28;20292;-79
2022/05/02 04:43:23;;;;;;;3.00;2.08;;;;;;;13.21;61.66;94605.53;5033511;28;20232;-87
2022/05/02 04:45:51;;;;;;;7.70;2.70;;;;;;;13.77;60.00;94594.66;5033309;28;20733;-81
2022/05/02 04:48:18;;;;;;;2.33;1.95;;;;;;;13.75;59.78;94596.94;5033238;28;20655;-88
2022/05/02 04:50:46;;;;;;;2.38;1.98;;;;;;;13.46;60.51;94607.03;5033125;28;20201;-78
2022/05/02 04:53:13;;;;;;;2.45;1.90;;;;;;;14.13;58.64;94608.06;5032819;28;20236;-83
2022/05/02 04:55:39;;;;;;;2.80;2.08;;;;;;;14.05;58.45;94606.31;5033053;28;20203;-76
2022/05/02 04:58:07;;;;;;;2.80;2.00;;;;;;;13.71;59.49;94591.38;5033103;28;20429;-76
2022/05/02 05:00:33;;;;;;;2.80;2.13;;;;;;;13.89;58.56;94591.88;5032259;28;20231;-82
2022/05/02 05:03:04;;;;;;;3.72;2.67;;;;;;;14.03;58.66;94592.25;5032413;28;20278;-77
2022/05/02 05:05:31;;;;;;;5.88;3.15;;;;;;;14.27;57.50;94585.84;5032623;28;20192;-84
2022/05/02 05:08:01;;;;;;;4.10;2.53;;;;;;;14.65;56.01;94574.31;5031680;28;20666;-81
2022/05/02 05:10:28;;;;;;;2.25;2.03;;;;;;;15.01;55.51;94569.66;5032811;28;20216;-83
2022/05/02 05:13:06;;;;;;;5.68;4.15;;;;;;;15.05;55.33;94571.31;5032402;28;20203;-84
2022/05/02 05:18:45;;;;;;;4.70;3.40;;;;;;;16.51;51.74;94568.63;5026425;28;20673;-82
2022/05/02 05:21:24;;;;;;;4.38;2.90;;;;;;;16.60;51.12;94566.44;5032078;28;20205;-83
2022/05/02 05:24:06;;;;;;;6.20;4.38;;;;;;;16.23;52.21;94558.81;5031656;28;20220;-86
2022/05/02 05:26:47;;;;;;;9.77;4.45;;;;;;;16.26;51.79;94557.28;5028827;28;20215;-83
2022/05/02 05:29:26;;;;;;;6.93;4.40;;;;;;;16.54;51.19;94556.94;5031111;28;20216;-87
2022/05/02 05:32:06;;;;;;;7.38;4.50;;;;;;;16.20;51.80;94561.47;5030355;28;20196;-82
2022/05/02 05:34:45;;;;;;;4.60;3.58;;;;;;;16.48;50.99;94552.94;5032048;28;20192;-82
2022/05/02 05:37:56;;;;;;;8.32;4.72;;;;;;;16.38;50.64;94564.50;5029731;28;20215;-84
2022/05/02 05:40:29;;;;;;;5.93;4.68;;;;;;;16.41;50.93;94555.56;5027524;28;20208;-71
2022/05/02 05:43:04;;;;;;;6.85;4.95;;;;;;;16.60;50.14;94558.22;5032546;28;20220;-78
2022/05/02 05:45:43;;;;;;;8.60;4.85;;;;;;;16.61;50.60;94563.31;5031245;28;20279;-78
2022/05/02 05:48:14;;;;;;;9.13;4.70;;;;;;;16.60;49.97;94555.47;5029891;28;20196;-78
2022/05/02 05:50:51;;;;;;;8.38;5.03;;;;;;;16.65;50.01;94552.47;5025753;28;20647;-82
2022/05/02 05:53:33;;;;;;;6.55;4.65;;;;;;;16.23;50.66;94558.81;5031677;28;20284;-82
2022/05/02 05:56:12;;;;;;;6.05;4.53;;;;;;;15.55;52.58;94564.19;5030808;28;20212;-80
2022/05/02 05:58:50;;;;;;;7.40;4.65;;;;;;;15.49;52.58;94573.78;5029178;28;20268;-75
2022/05/02 06:01:30;;;;;;;7.13;5.30;;;;;;;15.27;53.44;94561.66;5028508;28;20212;-82
2022/05/02 06:04:03;;;;;;;7.95;5.05;;;;;;;15.60;52.18;94564.69;5031824;28;20203;-81
2022/05/02 06:06:32;;;;;;;7.05;4.82;;;;;;;15.16;52.85;94561.44;5031890;28;20200;-80
2022/05/02 06:09:01;;;;;;;8.68;4.45;;;;;;;15.43;53.44;94565.09;5029941;28;20200;-78
2022/05/02 06:11:29;;;;;;;9.48;4.82;;;;;;;16.25;51.35;94553.78;5029764;28;20224;-78
2022/05/02 06:13:59;;;;;;;6.50;3.85;;;;;;;15.55;52.36;94556.00;5031286;28;20219;-75
2022/05/02 06:19:16;;;;;;;8.50;3.85;;;;;;;16.58;51.08;94552.31;5031601;28;20267;-83
2022/05/02 06:21:46;;;;;;;3.03;2.70;;;;;;;17.25;48.67;94556.06;5031255;28;20200;-76
2022/05/02 06:24:15;;;;;;;6.28;3.03;;;;;;;16.79;49.70;94555.44;5029940;28;20204;-77
2022/05/02 06:26:47;;;;;;;4.80;3.85;;;;;;;16.54;51.37;94557.72;5029800;28;20277;-84
2022/05/02 06:29:16;;;;;;;7.57;3.75;;;;;;;16.47;50.74;94545.91;5029941;28;20217;-83
2022/05/02 06:31:45;;;;;;;5.20;4.07;;;;;;;18.60;46.27;94537.50;5027241;28;20193;-82
2022/05/02 06:34:13;;;;;;;5.22;3.42;;;;;;;17.70;47.55;94541.38;5029226;28;20200;-78
2022/05/02 06:37:08;;;;;;;5.18;3.40;;;;;;;18.70;46.27;94528.59;5029227;28;20216;-79
2022/05/02 06:39:52;;;;;;;5.30;4.20;;;;;;;18.70;45.71;94532.13;5027806;28;20678;-77
2022/05/02 06:42:25;;;;;;;6.00;3.45;;;;;;;17.81;46.72;94540.69;5027753;28;20223;-81
2022/05/02 06:45:04;;;;;;;6.97;4.35;;;;;;;17.46;47.47;94530.91;5029911;28;20224;-78
2022/05/02 06:47:41;;;;;;;6.25;5.00;;;;;;;17.03;47.95;94535.84;5029414;28;20188;-83
2022/05/02 06:50:08;;;;;;;7.10;5.03;;;;;;;16.99;47.72;94534.97;5029701;28;20189;-78
2022/05/02 06:52:47;;;;;;;5.70;4.88;;;;;;;17.64;46.53;94529.16;5028940;28;20189;-74
2022/05/02 06:55:25;;;;;;;7.35;5.50;;;;;;;18.38;46.22;94523.63;5028464;28;20184;-74
2022/05/02 06:58:08;;;;;;;7.60;6.03;;;;;;;19.19;43.35;94511.63;5028061;28;20698;-73
2022/05/02 07:00:38;;;;;;;6.70;4.82;;;;;;;17.77;45.93;94527.72;5028551;28;20640;-77
2022/05/02 07:03:37;;;;;;;7.43;5.55;;;;;;;16.56;48.87;94527.28;5028003;28;20228;-77
2022/05/02 07:06:09;;;;;;;7.20;5.07;;;;;;;18.11;46.24;94522.19;5029860;28;20269;-74
2022/05/02 07:08:48;;;;;;;7.15;5.70;;;;;;;17.87;46.13;94520.03;5029666;28;20196;-77
2022/05/02 07:11:21;;;;;;;6.50;5.55;;;;;;;17.61;46.68;94509.94;5030234;28;20234;-80
2022/05/02 07:14:02;;;;;;;6.25;5.25;;;;;;;16.68;48.50;94513.44;5029746;28;20193;-75
2022/05/02 07:16:31;;;;;;;9.73;6.38;;;;;;;15.49;52.15;94519.19;5028613;28;20250;-78
2022/05/02 07:19:22;;;;;;;8.30;5.72;;;;;;;14.81;53.32;94522.47;5031331;28;20567;-76
2022/05/02 07:21:56;;;;;;;8.88;5.20;;;;;;;14.70;53.16;94527.69;5021928;28;20189;-84
2022/05/02 07:24:42;;;;;;;8.55;5.28;;;;;;;14.94;52.99;94515.75;5030690;28;20287;-75
2022/05/02 07:27:17;;;;;;;7.00;5.90;;;;;;;15.42;52.03;94517.13;5028019;28;20196;-80
2022/05/02 07:29:47;;;;;;;8.70;4.70;;;;;;;15.00;53.06;94519.78;5025179;28;20246;-74
2022/05/02 07:32:15;;;;;;;6.20;5.03;;;;;;;15.08;52.74;94512.50;5029343;28;20200;-75
2022/05/02 07:34:42;;;;;;;6.68;5.05;;;;;;;14.77;53.45;94516.94;5022078;28;20648;-75
2022/05/02 07:37:12;;;;;;;6.60;4.80;;;;;;;14.67;52.95;94486.72;5029149;28;20244;-76
2022/05/02 07:39:42;;;;;;;6.60;4.65;;;;;;;14.68;53.53;94510.09;5027346;28;20203;-77
2022/05/02 07:42:11;;;;;;;8.23;6.50;;;;;;;14.84;53.66;94513.59;5030418;28;20204;-78
2022/05/02 07:44:39;;;;;;;5.82;4.93;;;;;;;14.62;53.55;94509.59;5029954;28;20224;-73
2022/05/02 07:47:09;;;;;;;8.85;5.00;;;;;;;14.87;53.54;94505.47;5029376;28;20196;-78
2022/05/02 07:49:39;;;;;;;9.73;6.38;;;;;;;15.31;53.14;94513.38;5029056;28;20204;-76
2022/05/02 07:52:09;;;;;;;6.72;5.40;;;;;;;15.53;51.78;94501.72;5027046;28;20291;-82
2022/05/02 07:54:40;;;;;;;7.00;4.20;;;;;;;15.06;52.64;94512.09;5029229;28;20184;-72
2022/05/02 07:57:11;;;;;;;3.97;3.58;;;;;;;15.03;52.77;94526.47;5029324;28;20216;-77
2022/05/02 07:59:41;;;;;;;5.40;4.65;;;;;;;14.86;53.01;94531.19;5028943;28;20746;-77
2022/05/02 08:02:08;;;;;;;5.53;4.63;;;;;;;15.19;52.68;94527.16;5031037;28;20276;-75
2022/05/02 08:04:45;;;;;;;5.55;4.07;;;;;;;15.45;52.02;94521.84;5031900;28;20200;-79
2022/05/02 08:07:16;;;;;;;7.47;4.88;;;;;;;15.49;51.22;94519.97;5034228;28;20559;-79
2022/05/02 08:10:03;;;;;;;6.38;4.70;;;;;;;15.14;52.41;94535.66;5033580;28;20227;-77
2022/05/02 08:12:39;;;;;;;5.72;4.88;;;;;;;15.01;52.62;94542.38;5033627;28;20232;-79
2022/05/02 08:15:11;;;;;;;9.93;5.68;;;;;;;15.24;52.33;94540.53;5033531;28;20682;-74
2022/05/02 08:17:59;;;;;;;5.07;4.35;;;;;;;15.00;52.19;94535.34;5033675;28;20246;-72
2022/05/02 08:20:33;;;;;;;8.40;5.07;;;;;;;15.47;51.32;94535.91;5033288;28;20606;-78
2022/05/02 08:29:03;;;;;;;5.55;4.50;;;;;;;15.72;49.41;94527.44;5033058;28;20270;-69
2022/05/02 08:31:47;;;;;;;7.43;5.50;;;;;;;15.72;49.51;94530.94;5032776;28;20204;-75
2022/05/02 08:34:30;;;;;;;6.97;5.70;;;;;;;15.81;49.16;94533.47;5031084;28;20192;-83
2022/05/02 08:37:16;;;;;;;9.65;5.78;;;;;;;16.22;48.49;94524.44;5032893;28;20252;-75
2022/05/02 08:39:54;;;;;;;7.75;6.10;;;;;;;16.20;47.83;94523.22;5032981;28;20192;-79
2022/05/02 08:42:59;;;;;;;8.40;5.28;;;;;;;16.19;47.76;94533.34;5039013;28;20249;-75
2022/05/02 08:46:16;;;;;;;6.82;5.90;;;;;;;16.50;46.63;94517.84;5047262;28;20642;-77
2022/05/02 08:49:36;;;;;;;7.32;5.57;;;;;;;16.83;45.94;94506.22;5018771;28;20208;-74
2022/05/02 08:53:03;;;;;;;7.43;5.90;;;;;;;16.45;46.21;94509.94;5014987;28;20208;-75
2022/05/02 08:55:45;;;;;;;7.60;5.60;;;;;;;16.93;46.31;94494.66;5020740;28;20235;-79
2022/05/02 08:58:43;;;;;;;6.28;5.05;;;;;;;17.54;45.22;94480.50;5032582;28;20622;-77
2022/05/02 09:01:42;;;;;;;7.07;4.85;;;;;;;17.51;43.91;94489.47;5031659;28;20208;-75
2022/05/02 09:04:39;;;;;;;6.88;4.95;;;;;;;17.27;44.48;94489.97;5032762;28;20220;-79
2022/05/02 09:07:38;;;;;;;8.13;5.72;;;;;;;16.78;44.88;94490.13;5013218;28;20221;-78
2022/05/02 09:10:07;;;;;;;8.45;5.03;;;;;;;16.10;46.39;94494.56;5009514;28;20291;-80
2022/05/02 09:12:58;;;;;;;6.10;5.40;;;;;;;16.12;46.16;94486.00;5032443;28;20557;-81
2022/05/02 09:16:06;;;;;;;8.00;4.60;;;;;;;16.65;44.24;94473.16;4989484;28;20201;-79
2022/05/02 09:19:12;;;;;;;8.98;4.43;;;;;;;16.42;43.97;94462.22;5011929;28;20211;-79
2022/05/02 09:22:11;;;;;;;5.13;4.05;;;;;;;16.31;44.30;94473.03;5021574;28;20196;-79
2022/05/02 09:25:03;;;;;;;6.25;2.90;;;;;;;16.72;42.88;94462.31;5019236;28;20227;-80
2022/05/02 09:27:55;;;;;;;5.15;3.97;;;;;;;16.63;43.39;94461.78;5032388;28;20224;-81
2022/05/02 09:30:58;;;;;;;7.60;4.15;;;;;;;17.12;42.28;94456.16;5032193;28;20212;-73
2022/05/02 09:33:37;;;;;;;4.10;3.50;;;;;;;17.15;41.48;94449.16;5031873;28;20236;-83
2022/05/02 09:36:19;;;;;;;4.25;3.33;;;;;;;17.00;42.05;94465.41;5020105;28;20283;-77
2022/05/02 09:38:51;;;;;;;4.82;4.20;;;;;;;17.60;41.52;94454.34;5027583;28;20682;-79
2022/05/02 09:41:39;;;;;;;4.88;4.10;;;;;;;17.51;40.67;94451.13;5030957;28;20551;-77
2022/05/02 09:50:17;;;;;;;6.82;3.47;;;;;;;17.63;39.92;94439.91;5031221;28;20211;-84
2022/05/02 09:53:03;;;;;;;4.05;3.10;;;;;;;17.86;39.42;94428.00;5031421;28;20220;-78
2022/05/02 09:58:36;;;;;;;11.40;3.88;;;;;;;18.04;40.56;94417.97;5030850;28;20218;-80
2022/05/02 10:01:17;;;;;;;6.28;3.45;;;;;;;18.19;40.14;94419.63;5030892;28;20275;-79
2022/05/02 10:04:19;;;;;;;4.30;3.35;;;;;;;17.91;39.44;94416.69;5022112;28;20208;-82
2022/05/02 10:06:51;;;;;;;7.32;3.25;;;;;;;17.69;39.68;94419.25;5014382;28;20203;-81
2022/05/02 10:09:51;;;;;;;4.85;3.20;;;;;;;17.38;39.52;94408.72;5030673;28;20228;-78
2022/05/02 10:12:32;;;;;;;7.78;3.20;;;;;;;17.77;39.44;94413.84;5024740;28;20211;-79
2022/05/02 10:15:30;;;;;;;4.93;3.05;;;;;;;17.52;40.23;94408.06;5018042;28;20192;-85
2022/05/02 10:18:12;;;;;;;3.50;3.03;;;;;;;17.25;41.09;94426.59;5012460;28;20207;-81
2022/05/02 10:20:54;;;;;;;5.30;3.28;;;;;;;17.38;41.28;94414.19;5029837;28;20334;-84
2022/05/02 10:23:39;;;;;;;7.85;4.75;;;;;;;17.73;41.38;94420.06;5030161;28;20760;-76
2022/05/02 10:26:15;;;;;;;7.07;3.70;;;;;;;17.54;41.00;94420.25;5029632;28;20674;-81
2022/05/02 10:29:05;;;;;;;4.07;3.58;;;;;;;17.37;40.15;94412.63;5030560;28;20199;-73
2022/05/02 10:31:36;;;;;;;4.22;3.80;;;;;;;17.51;39.05;94423.72;5027840;28;20227;-82
2022/05/02 10:34:04;;;;;;;4.57;3.63;;;;;;;17.61;38.82;94412.09;5044670;28;20295;-85
2022/05/02 10:36:37;;;;;;;4.75;3.17;;;;;;;17.73;38.67;94398.16;5031964;28;20244;-76
2022/05/02 10:39:16;;;;;;;3.53;3.22;;;;;;;17.48;38.13;94399.84;5025770;28;20190;-78
2022/05/02 10:41:49;;;;;;;6.40;4.45;;;;;;;17.89;37.88;94397.91;5025826;28;20570;-82
2022/05/02 10:44:18;;;;;;;4.20;3.50;;;;;;;17.86;37.64;94395.13;5033942;28;20245;-83
2022/05/02 10:46:46;;;;;;;10.00;4.47;;;;;;;17.89;38.34;94388.88;5027708;28;20204;-83
2022/05/02 10:49:23;;;;;;;4.75;3.72;;;;;;;18.20;38.00;94385.56;5027892;28;20553;-76
2022/05/02 10:51:56;;;;;;;3.85;3.45;;;;;;;18.68;37.20;94390.97;5029156;28;20204;-77
2022/05/02 10:54:39;;;;;;;6.78;4.25;;;;;;;18.74;39.17;94389.44;5025646;28;20259;-78
2022/05/02 10:57:26;;;;;;;3.67;2.80;;;;;;;18.26;37.71;94397.75;5028771;28;20189;-74
2022/05/02 10:59:54;;;;;;;3.45;3.15;;;;;;;17.84;38.34;94386.47;5028543;28;20280;-76
2022/05/02 11:02:56;;;;;;;2.45;2.25;;;;;;;17.68;36.46;94395.75;5029715;28;20217;-77
2022/05/02 11:05:28;;;;;;;2.33;2.00;;;;;;;17.83;35.93;94390.38;5023270;28;20223;-79
2022/05/02 11:08:07;;;;;;;3.08;2.17;;;;;;;17.70;36.31;94387.16;5030586;28;20262;-80
2022/05/02 11:10:41;;;;;;;3.38;2.25;;;;;;;17.84;36.57;94389.22;5029912;28;20216;-80
2022/05/02 11:13:24;;;;;;;4.55;2.47;;;;;;;17.29;36.92;94389.88;5030780;28;20219;-77
2022/05/02 11:16:03;;;;;;;2.50;2.28;;;;;;;17.03;38.10;94393.50;5029865;28;20193;-80
2022/05/02 11:21:47;;;;;;;3.22;2.72;;;;;;;17.56;39.24;94379.56;5025129;28;20297;-74
2022/05/02 11:24:38;;;;;;;10.25;2.33;;;;;;;17.25;40.34;94383.56;5026832;28;20750;-78
2022/05/02 11:27:21;;;;;;;3.42;2.50;;;;;;;17.19;40.05;94390.56;5030022;28;20279;-82
2022/05/02 11:30:01;;;;;;;4.40;2.58;;;;;;;16.83;41.54;94386.63;5030385;28;20311;-82
2022/05/02 11:32:40;;;;;;;2.90;2.40;;;;;;;16.67;41.86;94386.81;5030763;28;20215;-79
2022/05/02 11:35:12;;;;;;;2.88;2.33;;;;;;;16.30;43.14;94394.09;5043760;28;20210;-72
2022/05/02 11:37:54;;;;;;;3.65;2.67;;;;;;;16.16;43.88;94400.16;5034638;28;20228;-80
2022/05/02 11:40:28;;;;;;;2.60;2.40;;;;;;;16.17;43.91;94403.69;5034089;28;20279;-78
2022/05/02 11:42:55;;;;;;;3.58;2.90;;;;;;;15.95;43.95;94383.47;5034273;28;20192;-76
2022/05/02 11:45:40;;;;;;;2.95;2.63;;;;;;;15.53;45.81;94397.97;5033831;28;20339;-81
2022/05/02 11:48:54;;;;;;;5.70;3.25;;;;;;;15.73;45.33;94403.38;5033928;28;20232;-75
2022/05/02 11:51:41;;;;;;;3.20;2.70;;;;;;;15.57;45.70;94396.13;5033553;28;20228;-79
2022/05/02 11:54:19;;;;;;;4.13;2.80;;;;;;;15.54;45.66;94396.81;5043910;28;20249;-81
2022/05/02 11:56:56;;;;;;;2.97;2.53;;;;;;;15.66;43.79;94392.34;5036561;28;20189;-82
2022/05/02 11:59:24;;;;;;;4.63;2.30;;;;;;;15.81;43.10;94388.69;5034037;28;20292;-81
2022/05/02 12:02:13;;;;;;;4.63;2.85;;;;;;;15.95;42.33;94383.47;5033949;28;20227;-75
2022/05/02 12:04:45;;;;;;;4.10;2.83;;;;;;;16.46;41.21;94374.78;5033999;28;20525;-78
2022/05/02 12:07:14;;;;;;;5.03;2.88;;;;;;;16.18;42.12;94386.91;5033726;28;20204;-79
2022/05/02 12:09:43;;;;;;;2.95;2.10;;;;;;;15.74;41.85;94388.56;5033275;28;20197;-80
2022/05/02 12:12:11;;;;;;;3.03;2.40;;;;;;;15.79;42.96;94371.88;5032168;28;20562;-81
2022/05/02 12:14:41;;;;;;;3.10;2.80;;;;;;;15.84;42.55;94375.09;5032566;28;20196;-77
2022/05/02 12:17:11;;;;;;;3.38;3.08;;;;;;;16.07;42.47;94366.06;5032907;28;20199;-82
2022/05/02 12:19:40;;;;;;;6.07;3.08;;;;;;;15.99;42.20;94370.63;5031595;28;20193;-81
2022/05/02 12:22:14;;;;;;;2.60;2.40;;;;;;;15.82;42.78;94368.44;5031992;28;20216;-85
2022/05/02 12:24:45;;;;;;;4.95;3.35;;;;;;;15.89;43.57;94368.53;5031054;28;20208;-77
2022/05/02 12:27:14;;;;;;;4.63;3.60;;;;;;;16.08;43.74;94373.91;5030705;28;20644;-78
2022/05/02 12:29:43;;;;;;;14.82;5.68;;;;;;;16.16;43.79;94370.09;5033561;28;20231;-79
2022/05/02 12:32:11;;;;;;;5.50;3.33;;;;;;;15.70;44.27;94374.09;5033663;28;20216;-81
2022/05/02 12:34:40;;;;;;;6.15;3.20;;;;;;;15.62;44.48;94376.69;5033385;28;20201;-80
2022/05/02 12:37:14;;;;;;;5.40;3.25;;;;;;;15.61;44.47;94369.66;5033132;28;20223;-77